Time;durP1;ratioP1;P1;durP2;ratioP2;P2;SDS_P1;SDS_P2;PMS_P1;PMS_P2;Temp;Humidity;BMP_temperature;BMP_pressure;BME280_temperature;BME280_humidity;BME280_pressure;Samples;Min_cycle;Max_cycle;Signal;HPM_P1;HPM_P2
2021/06/23 00:00:21;;;;;;;4.23;3.17;;;20.60;99.90;;;;;;5052903;28;20397;-57
2021/06/23 00:02:47;;;;;;;3.83;2.93;;;20.70;99.90;;;;;;5052496;28;20431;-57
2021/06/23 00:05:14;;;;;;;3.17;2.87;;;20.60;99.90;;;;;;5053296;28;20544;-57
2021/06/23 00:07:39;;;;;;;3.60;3.30;;;20.60;99.90;;;;;;5053232;28;20174;-56
2021/06/23 00:10:05;;;;;;;3.60;3.30;;;20.70;99.90;;;;;;5052147;28;20413;-56
2021/06/23 00:12:31;;;;;;;4.23;3.27;;;20.90;99.90;;;;;;5052255;28;20194;-57
2021/06/23 00:14:57;;;;;;;4.10;3.50;;;20.90;99.90;;;;;;5052612;28;20200;-54
2021/06/23 00:17:22;;;;;;;3.50;3.20;;;20.90;99.90;;;;;;5052297;28;20174;-57
2021/06/23 00:19:48;;;;;;;4.93;3.80;;;21.00;99.90;;;;;;5052184;28;20541;-57
2021/06/23 00:22:14;;;;;;;4.23;3.83;;;21.00;99.90;;;;;;5052390;28;20304;-56
2021/06/23 00:24:40;;;;;;;3.80;3.50;;;21.00;99.90;;;;;;5051302;28;20205;-57
2021/06/23 00:27:07;;;;;;;4.37;4.07;;;21.00;99.90;;;;;;5052261;28;20405;-57
2021/06/23 00:29:32;;;;;;;4.93;4.27;;;20.90;99.90;;;;;;5052352;28;20450;-56
2021/06/23 00:31:59;;;;;;;4.80;4.40;;;21.00;99.90;;;;;;5052489;28;20862;-56
2021/06/23 00:34:29;;;;;;;5.63;4.30;;;21.00;99.90;;;;;;5051478;28;20286;-58
2021/06/23 00:36:55;;;;;;;4.53;4.13;;;21.00;99.90;;;;;;5052958;28;20386;-54
2021/06/23 00:39:20;;;;;;;4.57;4.17;;;21.10;99.90;;;;;;5052829;28;20815;-58
2021/06/23 00:41:46;;;;;;;5.17;4.70;;;21.00;99.90;;;;;;5054199;28;20593;-58
2021/06/23 00:44:16;;;;;;;8.93;5.93;;;21.00;99.90;;;;;;5056209;28;20216;-57
2021/06/23 00:46:42;;;;;;;5.00;4.60;;;20.90;99.90;;;;;;5055883;28;20190;-54
2021/06/23 00:49:09;;;;;;;4.83;4.53;;;21.00;99.90;;;;;;5055527;28;20401;-57
2021/06/23 00:51:34;;;;;;;5.00;4.53;;;21.00;99.90;;;;;;5055950;28;20863;-56
2021/06/23 00:54:00;;;;;;;5.07;4.67;;;21.10;99.90;;;;;;5055675;28;20496;-55
2021/06/23 00:56:33;;;;;;;4.90;4.50;;;21.00;99.90;;;;;;5054488;28;20239;-52
2021/06/23 00:58:59;;;;;;;4.87;4.47;;;20.90;99.90;;;;;;5055780;28;20171;-56
2021/06/23 01:01:26;;;;;;;4.93;4.53;;;20.90;99.90;;;;;;5055426;28;20401;-55
2021/06/23 01:03:53;;;;;;;5.33;4.83;;;20.80;99.90;;;;;;5055414;28;20770;-56
2021/06/23 01:06:19;;;;;;;5.13;4.63;;;20.80;99.90;;;;;;5055295;28;20469;-57
2021/06/23 01:08:45;;;;;;;5.47;4.57;;;20.80;99.90;;;;;;5055375;28;20873;-57
2021/06/23 01:11:10;;;;;;;11.57;5.60;;;20.80;99.90;;;;;;5055266;28;20401;-56
2021/06/23 01:13:58;;;;;;;4.73;4.40;;;20.80;99.90;;;;;;5054780;28;20194;-56
2021/06/23 01:16:29;;;;;;;4.90;4.50;;;20.90;99.90;;;;;;5055398;28;20174;-56
2021/06/23 01:18:56;;;;;;;5.23;4.73;;;20.90;99.90;;;;;;5055137;28;20897;-55
2021/06/23 01:21:22;;;;;;;6.17;4.50;;;20.90;99.90;;;;;;5055304;28;20406;-56
2021/06/23 01:23:48;;;;;;;5.50;5.10;;;20.90;99.90;;;;;;5055165;28;20928;-56
2021/06/23 01:26:14;;;;;;;6.37;5.77;;;20.80;99.90;;;;;;5055245;28;20525;-57
2021/06/23 01:28:40;;;;;;;5.60;4.60;;;20.80;99.90;;;;;;5054494;28;20420;-56
2021/06/23 01:31:06;;;;;;;4.90;4.60;;;20.80;99.90;;;;;;5053934;28;20197;-57
2021/06/23 01:33:32;;;;;;;5.80;5.30;;;20.80;99.90;;;;;;5053999;28;20195;-55
2021/06/23 01:35:58;;;;;;;6.40;5.80;;;20.80;99.90;;;;;;5051627;28;20285;-52
2021/06/23 01:38:24;;;;;;;5.67;5.13;;;20.70;99.90;;;;;;5035226;28;20481;-57
2021/06/23 01:40:50;;;;;;;7.90;5.53;;;20.70;99.90;;;;;;5017113;28;20402;-57
2021/06/23 01:43:16;;;;;;;6.50;6.00;;;20.70;99.90;;;;;;5034838;28;20230;-54
2021/06/23 01:45:45;;;;;;;5.80;4.90;;;20.60;99.90;;;;;;5034791;28;20195;-55
2021/06/23 01:48:14;;;;;;;5.63;5.20;;;20.60;99.90;;;;;;5038434;28;20510;-54
2021/06/23 01:50:40;;;;;;;6.83;5.63;;;20.40;99.90;;;;;;5054525;28;20932;-57
2021/06/23 01:53:06;;;;;;;6.27;5.67;;;20.40;99.90;;;;;;5053120;28;20449;-55
2021/06/23 01:55:31;;;;;;;6.37;5.80;;;20.20;99.90;;;;;;5054692;28;20206;-56
2021/06/23 01:58:01;;;;;;;5.10;4.60;;;20.20;99.90;;;;;;5054048;28;20163;-56
2021/06/23 02:00:32;;;;;;;6.90;4.90;;;20.20;99.90;;;;;;5054657;28;20305;-57
2021/06/23 02:03:02;;;;;;;5.80;5.30;;;20.10;99.90;;;;;;5054387;28;20982;-57
2021/06/23 02:06:03;;;;;;;5.47;4.93;;;20.10;99.90;;;;;;5036394;28;20869;-57
2021/06/23 02:08:50;;;;;;;4.17;3.87;;;19.90;99.90;;;;;;5021646;28;20416;-56
2021/06/23 02:11:42;;;;;;;4.30;3.90;;;19.90;99.90;;;;;;5054541;28;20381;-55
2021/06/23 02:14:37;;;;;;;6.60;5.00;;;20.00;99.90;;;;;;5043422;28;20432;-56
2021/06/23 02:17:07;;;;;;;5.23;4.73;;;20.00;99.90;;;;;;5054178;28;20484;-56
2021/06/23 02:19:37;;;;;;;7.40;4.17;;;19.90;99.90;;;;;;5053046;28;20419;-56
2021/06/23 02:22:03;;;;;;;3.17;2.97;;;19.70;99.90;;;;;;5054342;28;20481;-58
2021/06/23 02:24:29;;;;;;;3.97;3.20;;;19.60;99.90;;;;;;5053870;28;20417;-58
2021/06/23 02:26:56;;;;;;;3.60;3.30;;;19.40;99.90;;;;;;5054042;28;20415;-52
2021/06/23 02:29:22;;;;;;;3.53;3.23;;;19.30;99.90;;;;;;5053893;28;20386;-53
2021/06/23 02:31:51;;;;;;;4.70;3.17;;;19.50;99.90;;;;;;5053980;28;20393;-56
2021/06/23 02:34:17;;;;;;;4.43;3.47;;;19.40;99.90;;;;;;5053477;28;20822;-56
2021/06/23 02:36:43;;;;;;;3.23;2.93;;;19.30;99.90;;;;;;5053828;28;20401;-55
2021/06/23 02:39:10;;;;;;;4.27;3.80;;;19.20;99.90;;;;;;5053673;28;20401;-58
2021/06/23 02:41:36;;;;;;;2.83;2.63;;;19.20;99.90;;;;;;5053840;28;20496;-52
2021/06/23 02:44:03;;;;;;;2.90;2.70;;;19.20;99.90;;;;;;5052489;28;20409;-54
2021/06/23 02:46:30;;;;;;;3.83;3.50;;;19.30;99.90;;;;;;5053808;28;20405;-53
2021/06/23 02:48:57;;;;;;;2.70;2.40;;;19.40;99.90;;;;;;5053503;28;20734;-57
2021/06/23 02:51:24;;;;;;;3.30;2.63;;;19.40;99.90;;;;;;5053719;28;20500;-53
2021/06/23 02:53:52;;;;;;;3.73;3.03;;;19.40;99.90;;;;;;5053382;28;20444;-53
2021/06/23 02:56:19;;;;;;;2.63;2.43;;;19.40;99.90;;;;;;5053257;28;20423;-54
2021/06/23 02:58:46;;;;;;;3.00;2.80;;;19.40;99.90;;;;;;5052999;28;20489;-53
2021/06/23 03:01:13;;;;;;;3.17;2.87;;;19.40;99.90;;;;;;5053595;28;20849;-58
2021/06/23 03:03:40;;;;;;;2.87;2.63;;;19.40;99.90;;;;;;5053292;28;20394;-57
2021/06/23 03:06:06;;;;;;;4.50;2.60;;;19.40;99.90;;;;;;5103247;22;20573;-60
2021/06/23 03:08:33;;;;;;;2.30;2.10;;;19.40;99.90;;;;;;5093375;28;20432;-60
2021/06/23 03:10:59;;;;;;;1.97;1.87;;;19.40;99.90;;;;;;5094090;28;20394;-59
2021/06/23 03:13:25;;;;;;;2.53;2.33;;;19.40;99.90;;;;;;5092862;28;20813;-58
2021/06/23 03:15:50;;;;;;;2.70;2.50;;;19.40;99.90;;;;;;5093588;28;20594;-59
2021/06/23 03:18:16;;;;;;;4.50;3.10;;;19.40;99.90;;;;;;5092565;28;20176;-58
2021/06/23 03:20:42;;;;;;;4.47;2.90;;;19.20;99.90;;;;;;5093541;28;20164;-58
2021/06/23 03:23:07;;;;;;;5.90;3.33;;;19.10;99.90;;;;;;5093386;28;20218;-59
2021/06/23 03:25:33;;;;;;;3.53;3.23;;;19.00;99.90;;;;;;5095649;28;20650;-59
2021/06/23 03:28:01;;;;;;;2.60;2.40;;;19.00;99.90;;;;;;5093207;28;20260;-59
2021/06/23 03:30:28;;;;;;;2.53;2.33;;;19.10;99.90;;;;;;5093210;28;20165;-58
2021/06/23 03:32:55;;;;;;;4.20;3.50;;;18.90;99.90;;;;;;5093154;28;20446;-59
2021/06/23 03:35:21;;;;;;;4.93;2.60;;;18.80;99.90;;;;;;5093082;28;20415;-59
2021/06/23 03:37:48;;;;;;;2.57;2.37;;;18.90;99.90;;;;;;5093117;28;20399;-59
2021/06/23 03:40:14;;;;;;;4.60;2.80;;;18.90;99.90;;;;;;5093596;28;20400;-59
2021/06/23 03:42:40;;;;;;;3.47;2.93;;;18.90;99.90;;;;;;5092019;28;20468;-59
2021/06/23 03:45:06;;;;;;;3.27;2.97;;;18.90;99.90;;;;;;5092965;28;20820;-58
2021/06/23 03:47:32;;;;;;;2.90;2.70;;;18.90;99.90;;;;;;5092990;28;20165;-59
2021/06/23 03:49:58;;;;;;;3.73;2.97;;;19.00;99.90;;;;;;5093370;28;20399;-58
2021/06/23 03:52:23;;;;;;;4.07;3.20;;;19.00;99.90;;;;;;5092906;28;20196;-59
2021/06/23 03:54:49;;;;;;;3.47;3.17;;;19.00;99.90;;;;;;5091546;28;20200;-57
2021/06/23 03:57:15;;;;;;;4.33;3.83;;;18.90;99.90;;;;;;5093214;28;20645;-59
2021/06/23 03:59:40;;;;;;;3.80;3.50;;;18.80;99.90;;;;;;5092173;28;20168;-58
2021/06/23 04:02:06;;;;;;;3.70;3.23;;;18.80;99.90;;;;;;5092734;28;20157;-57
2021/06/23 04:04:32;;;;;;;3.93;3.53;;;18.80;99.90;;;;;;5092674;28;20177;-58
2021/06/23 04:06:58;;;;;;;3.90;3.60;;;18.80;99.90;;;;;;5091836;28;20957;-57
2021/06/23 04:09:23;;;;;;;2.83;2.50;;;18.90;99.90;;;;;;5092846;28;20183;-58
2021/06/23 04:11:49;;;;;;;3.93;3.03;;;19.00;99.90;;;;;;5092694;28;20223;-59
2021/06/23 04:14:14;;;;;;;5.27;4.10;;;19.00;99.90;;;;;;5092802;28;20172;-59
2021/06/23 04:16:40;;;;;;;3.90;3.60;;;19.00;99.90;;;;;;5094002;28;20209;-58
2021/06/23 04:19:06;;;;;;;4.20;3.90;;;19.10;99.90;;;;;;5096336;28;20200;-59
2021/06/23 04:21:32;;;;;;;4.03;3.63;;;19.10;99.90;;;;;;5096257;28;20161;-58
2021/06/23 04:23:57;;;;;;;4.30;3.33;;;19.20;99.90;;;;;;5090264;28;20174;-59
2021/06/23 04:26:23;;;;;;;3.70;3.40;;;19.20;99.90;;;;;;5093022;28;20197;-59
2021/06/23 04:28:49;;;;;;;4.23;3.70;;;19.30;99.90;;;;;;5095277;28;20186;-59
2021/06/23 04:31:14;;;;;;;4.20;3.80;;;19.40;99.90;;;;;;5096240;28;20169;-59
2021/06/23 04:33:40;;;;;;;4.33;3.93;;;19.50;99.90;;;;;;5095901;28;20479;-58
2021/06/23 04:36:06;;;;;;;5.07;4.57;;;19.50;99.90;;;;;;5095159;28;20213;-59
2021/06/23 04:38:31;;;;;;;4.40;4.00;;;19.50;99.90;;;;;;5096275;28;20158;-58
2021/06/23 04:40:57;;;;;;;8.23;4.93;;;19.60;99.90;;;;;;5096136;28;20161;-59
2021/06/23 04:43:22;;;;;;;4.77;4.47;;;19.70;99.90;;;;;;5097082;28;20169;-58
2021/06/23 04:45:48;;;;;;;4.37;3.93;;;19.80;99.90;;;;;;5096263;28;20197;-59
2021/06/23 04:48:14;;;;;;;5.80;4.50;;;19.90;99.90;;;;;;5095916;28;20162;-59
2021/06/23 04:50:39;;;;;;;6.77;4.00;;;19.80;99.90;;;;;;5095763;28;20162;-59
2021/06/23 04:53:05;;;;;;;4.60;4.20;;;19.80;99.90;;;;;;5095801;28;20547;-58
2021/06/23 04:55:31;;;;;;;3.40;3.03;;;19.90;99.90;;;;;;5096462;28;20181;-58
2021/06/23 04:57:57;;;;;;;5.03;4.53;;;20.00;99.90;;;;;;5096805;28;20188;-58
2021/06/23 05:00:23;;;;;;;4.43;3.40;;;20.20;99.90;;;;;;5095694;28;20403;-56
2021/06/23 05:02:48;;;;;;;4.23;3.80;;;20.30;99.90;;;;;;5095460;28;20653;-59
2021/06/23 05:05:14;;;;;;;3.53;3.20;;;20.50;99.90;;;;;;5094309;28;20213;-56
2021/06/23 05:07:39;;;;;;;3.57;3.27;;;20.50;99.90;;;;;;5095917;28;20169;-59
2021/06/23 05:10:06;;;;;;;3.77;3.30;;;20.40;99.90;;;;;;5096217;28;20268;-58
2021/06/23 05:12:31;;;;;;;3.93;3.53;;;20.40;99.90;;;;;;5094273;28;20201;-58
2021/06/23 05:14:58;;;;;;;3.17;2.87;;;20.50;99.90;;;;;;5095927;28;20977;-59
2021/06/23 05:17:24;;;;;;;2.80;2.60;;;20.60;99.90;;;;;;5097468;28;20642;-57
2021/06/23 05:19:50;;;;;;;2.93;2.07;;;20.80;99.90;;;;;;5093962;28;20415;-59
2021/06/23 05:22:15;;;;;;;2.47;2.27;;;20.80;99.90;;;;;;5095469;28;20479;-59
2021/06/23 05:24:42;;;;;;;2.90;2.10;;;20.90;99.90;;;;;;5094919;28;20169;-59
2021/06/23 05:27:09;;;;;;;2.90;2.03;;;21.10;99.90;;;;;;5095080;28;20186;-58
2021/06/23 05:29:35;;;;;;;2.43;1.93;;;21.20;99.90;;;;;;5095247;28;20736;-59
2021/06/23 05:32:01;;;;;;;2.30;2.10;;;21.20;99.90;;;;;;5095192;28;20553;-58
2021/06/23 05:34:28;;;;;;;3.40;2.20;;;21.30;99.90;;;;;;5094457;28;20157;-59
2021/06/23 05:36:55;;;;;;;3.13;2.80;;;21.30;99.90;;;;;;5095320;28;20400;-60
2021/06/23 05:39:20;;;;;;;3.93;2.03;;;21.40;99.90;;;;;;5093983;28;20415;-59
2021/06/23 05:41:46;;;;;;;2.67;2.00;;;21.40;99.90;;;;;;5095128;28;20403;-59
2021/06/23 05:44:12;;;;;;;3.37;2.03;;;21.50;99.90;;;;;;5095048;28;20684;-59
2021/06/23 05:46:37;;;;;;;2.73;2.00;;;21.50;99.90;;;;;;5094984;28;20688;-59
2021/06/23 05:49:03;;;;;;;5.00;2.50;;;21.60;99.90;;;;;;5094139;28;20184;-59
2021/06/23 05:51:28;;;;;;;6.33;2.10;;;21.70;99.90;;;;;;5095118;28;20181;-59
2021/06/23 05:53:54;;;;;;;2.30;2.10;;;21.80;99.90;;;;;;5076259;28;20199;-59
2021/06/23 05:56:20;;;;;;;2.53;2.00;;;21.80;99.90;;;;;;5094168;28;20193;-53
2021/06/23 05:58:45;;;;;;;2.50;2.17;;;21.80;99.90;;;;;;5094474;28;20540;-57
2021/06/23 06:01:11;;;;;;;2.50;1.80;;;21.90;99.90;;;;;;5095089;28;20708;-59
2021/06/23 06:03:38;;;;;;;2.57;1.90;;;22.00;99.90;;;;;;5094768;28;20173;-59
2021/06/23 06:06:04;;;;;;;3.13;2.00;;;22.10;99.90;;;;;;5093959;28;20221;-59
2021/06/23 06:08:29;;;;;;;2.60;1.80;;;21.90;99.90;;;;;;5094714;28;20406;-59
2021/06/23 06:10:56;;;;;;;2.73;2.10;;;22.00;99.90;;;;;;5094362;28;20491;-60
2021/06/23 06:13:21;;;;;;;2.47;2.27;;;22.00;99.90;;;;;;5093203;28;20282;-59
2021/06/23 06:15:47;;;;;;;2.67;1.73;;;21.80;99.90;;;;;;5095038;28;20959;-59
2021/06/23 06:18:13;;;;;;;1.70;1.60;;;21.70;99.90;;;;;;5094277;28;20165;-58
2021/06/23 06:20:38;;;;;;;4.73;1.90;;;21.60;99.90;;;;;;5094578;28;20195;-58
2021/06/23 06:23:05;;;;;;;3.17;2.00;;;21.40;99.90;;;;;;5094804;28;20296;-58
2021/06/23 06:25:31;;;;;;;1.83;1.40;;;21.60;99.90;;;;;;5075123;28;20196;-58
2021/06/23 06:27:58;;;;;;;2.30;1.33;;;21.90;99.90;;;;;;5094459;28;20403;-58
2021/06/23 06:30:24;;;;;;;1.73;1.63;;;22.00;99.90;;;;;;5094695;28;20933;-60
2021/06/23 06:32:50;;;;;;;2.33;1.40;;;22.30;99.90;;;;;;5094863;28;20447;-56
2021/06/23 06:35:16;;;;;;;1.60;1.50;;;22.40;99.90;;;;;;5094047;28;20423;-60
2021/06/23 06:37:42;;;;;;;1.93;1.83;;;22.50;99.90;;;;;;5094181;28;20402;-60
2021/06/23 06:40:08;;;;;;;1.70;1.60;;;22.60;99.90;;;;;;5093690;28;20516;-59
2021/06/23 06:42:34;;;;;;;4.70;1.97;;;22.60;99.90;;;;;;5093841;28;20175;-58
2021/06/23 06:44:59;;;;;;;2.87;2.60;;;22.20;99.90;;;;;;5094172;28;20428;-59
2021/06/23 06:47:25;;;;;;;4.90;1.80;;;22.10;99.90;;;;;;5094161;28;20174;-59
2021/06/23 06:49:51;;;;;;;2.17;1.97;;;22.10;99.90;;;;;;5093583;28;20532;-59
2021/06/23 06:52:17;;;;;;;1.73;1.50;;;22.20;99.90;;;;;;5094068;28;20189;-59
2021/06/23 06:54:42;;;;;;;2.50;1.70;;;22.10;99.90;;;;;;5093587;28;20644;-58
2021/06/23 06:57:08;;;;;;;2.53;2.33;;;22.10;99.90;;;;;;5093658;28;20171;-60
2021/06/23 06:59:34;;;;;;;2.23;1.80;;;22.00;99.90;;;;;;5093487;28;20172;-59
2021/06/23 07:01:59;;;;;;;2.90;2.03;;;22.10;99.90;;;;;;5093717;28;20162;-57
2021/06/23 07:04:25;;;;;;;3.00;2.13;;;22.20;99.90;;;;;;5094184;28;20630;-57
2021/06/23 07:06:51;;;;;;;2.33;2.13;;;22.30;99.90;;;;;;5094349;28;20657;-57
2021/06/23 07:09:17;;;;;;;4.63;2.33;;;22.40;99.90;;;;;;5093681;28;20703;-57
2021/06/23 07:11:43;;;;;;;2.50;2.20;;;22.20;99.90;;;;;;5093163;28;20158;-58
2021/06/23 07:14:09;;;;;;;4.13;1.90;;;22.20;99.90;;;;;;5093485;28;20252;-57
2021/06/23 07:16:35;;;;;;;2.10;1.90;;;22.20;99.90;;;;;;5088912;28;20956;-59
2021/06/23 07:19:01;;;;;;;2.40;2.10;;;22.40;99.90;;;;;;5090858;28;20904;-58
2021/06/23 07:21:26;;;;;;;2.90;1.53;;;22.60;99.90;;;;;;5093108;28;20457;-59
2021/06/23 07:23:57;;;;;;;2.03;1.83;;;22.70;99.90;;;;;;5093218;28;20166;-59
2021/06/23 07:26:25;;;;;;;3.80;2.20;;;22.60;99.90;;;;;;5093375;28;20282;-59
2021/06/23 07:28:52;;;;;;;2.60;2.40;;;22.70;99.90;;;;;;5093468;28;20399;-58
2021/06/23 07:31:26;;;;;;;1.67;1.57;;;22.80;99.90;;;;;;5093391;28;20503;-58
2021/06/23 07:34:17;;;;;;;1.90;1.80;;;22.70;99.90;;;;;;5093413;28;20493;-59
2021/06/23 07:36:49;;;;;;;2.60;2.30;;;22.90;99.90;;;;;;5093686;28;20423;-59
2021/06/23 07:39:17;;;;;;;2.47;2.27;;;23.00;99.90;;;;;;5093352;28;20391;-59
2021/06/23 07:41:48;;;;;;;3.70;2.20;;;23.10;99.90;;;;;;5093433;28;20758;-57
2021/06/23 07:44:18;;;;;;;3.97;1.90;;;23.20;99.90;;;;;;5092735;28;20379;-58
2021/06/23 07:46:54;;;;;;;2.03;1.93;;;23.30;99.90;;;;;;5093071;28;20411;-59
2021/06/23 07:49:21;;;;;;;2.30;2.10;;;23.30;99.90;;;;;;5092853;28;20421;-59
2021/06/23 08:10:11;;;;;;;5.33;2.60;;;23.90;99.90;;;;;;5062809;28;20975;-56
2021/06/23 08:12:50;;;;;;;2.87;2.07;;;24.00;99.90;;;;;;5097024;28;20442;-60
2021/06/23 08:15:16;;;;;;;2.00;1.77;;;24.20;99.90;;;;;;5096578;28;20514;-60
2021/06/23 08:17:41;;;;;;;3.60;2.00;;;24.70;99.90;;;;;;5095670;28;20498;-58
2021/06/23 08:20:07;;;;;;;2.70;2.50;;;24.70;99.90;;;;;;5097144;28;20170;-59
2021/06/23 08:22:33;;;;;;;2.43;2.03;;;24.80;99.90;;;;;;5096732;28;20174;-60
2021/06/23 08:24:59;;;;;;;2.20;2.00;;;24.90;99.90;;;;;;5095315;28;20451;-60
2021/06/23 08:27:24;;;;;;;1.93;1.70;;;25.00;99.90;;;;;;5096474;28;20172;-59
2021/06/23 08:29:50;;;;;;;2.93;2.00;;;24.90;99.90;;;;;;5097024;28;20679;-59
2021/06/23 08:32:15;;;;;;;1.40;1.20;;;24.90;99.90;;;;;;5096369;28;20219;-60
2021/06/23 08:34:41;;;;;;;2.60;1.80;;;25.00;99.90;;;;;;5096090;28;20176;-59
2021/06/23 08:37:07;;;;;;;1.70;1.60;;;25.60;99.90;;;;;;5096339;28;20158;-59
2021/06/23 08:39:32;;;;;;;2.43;1.90;;;25.50;99.90;;;;;;5096268;28;20622;-59
2021/06/23 08:41:58;;;;;;;2.30;1.77;;;25.60;99.90;;;;;;5096224;28;20174;-58
2021/06/23 08:44:24;;;;;;;2.73;2.20;;;25.40;99.90;;;;;;5095973;28;20166;-56
2021/06/23 08:46:51;;;;;;;2.00;1.50;;;25.00;99.90;;;;;;5095895;28;20189;-59
2021/06/23 08:49:17;;;;;;;2.27;2.07;;;25.00;99.90;;;;;;5095820;28;20173;-57
2021/06/23 08:51:43;;;;;;;2.53;1.70;;;25.20;99.90;;;;;;5095514;28;20464;-60
2021/06/23 08:54:10;;;;;;;2.07;1.87;;;25.40;99.90;;;;;;5096029;28;20457;-57
2021/06/23 08:56:36;;;;;;;3.20;1.80;;;25.80;99.90;;;;;;5096087;28;20493;-59
2021/06/23 08:59:04;;;;;;;2.20;2.00;;;25.90;99.90;;;;;;5096200;28;20808;-60
2021/06/23 09:01:31;;;;;;;2.80;2.17;;;26.00;99.90;;;;;;5095809;28;20494;-60
2021/06/23 09:04:05;;;;;;;3.23;2.10;;;25.90;99.90;;;;;;5095407;28;20407;-59
2021/06/23 09:06:58;;;;;;;2.90;1.73;;;25.70;99.90;;;;;;5106852;22;20859;-57
2021/06/23 09:09:34;;;;;;;4.87;1.70;;;25.20;99.90;;;;;;5074152;28;20409;-57
2021/06/23 09:12:02;;;;;;;3.37;1.80;;;25.40;99.90;;;;;;5075463;28;20388;-58
2021/06/23 09:14:30;;;;;;;4.37;1.60;;;25.50;99.90;;;;;;5075156;28;20432;-56
2021/06/23 09:17:17;;;;;;;3.10;1.63;;;25.60;99.90;;;;;;5075319;28;20424;-57
2021/06/23 09:19:44;;;;;;;1.80;1.50;;;25.30;99.90;;;;;;5075500;28;20438;-56
2021/06/23 09:22:31;;;;;;;2.23;1.40;;;25.70;99.90;;;;;;5075175;28;20404;-56
2021/06/23 09:24:57;;;;;;;1.83;1.53;;;25.70;99.90;;;;;;5075178;28;20479;-58
2021/06/23 09:27:28;;;;;;;2.50;1.70;;;25.60;99.90;;;;;;5090241;28;20399;-57
2021/06/23 09:30:14;;;;;;;1.37;1.27;;;25.70;99.90;;;;;;5075396;28;20388;-57
2021/06/23 09:32:39;;;;;;;4.10;1.47;;;25.80;99.90;;;;;;5075232;28;20986;-57
2021/06/23 09:35:06;;;;;;;1.50;1.40;;;25.60;99.90;;;;;;5074980;28;20401;-57
2021/06/23 09:37:34;;;;;;;1.90;1.60;;;25.90;99.90;;;;;;5074712;28;20180;-57
2021/06/23 09:40:18;;;;;;;2.50;1.60;;;26.00;99.90;;;;;;5075119;28;20400;-56
2021/06/23 09:42:46;;;;;;;1.40;1.30;;;26.10;99.90;;;;;;5074578;28;20411;-56
2021/06/23 09:45:13;;;;;;;1.60;1.50;;;25.90;99.90;;;;;;5073763;28;20791;-57
2021/06/23 09:47:39;;;;;;;1.40;1.30;;;25.70;99.90;;;;;;5074699;28;20400;-56
2021/06/23 09:50:11;;;;;;;1.27;1.17;;;25.50;99.90;;;;;;5075205;28;20453;-57
2021/06/23 09:52:50;;;;;;;1.30;1.20;;;26.10;99.90;;;;;;5073918;28;20201;-55
2021/06/23 09:55:17;;;;;;;1.60;1.20;;;26.30;99.90;;;;;;5054860;28;20562;-56
2021/06/23 09:58:06;;;;;;;2.47;1.37;;;26.80;99.90;;;;;;5054326;28;20957;-53
2021/06/23 10:00:34;;;;;;;1.33;1.23;;;26.70;98.70;;;;;;5054495;28;20397;-57
2021/06/23 10:03:06;;;;;;;3.70;1.30;;;26.70;98.60;;;;;;5054517;28;20405;-56
2021/06/23 10:05:32;;;;;;;1.37;0.87;;;26.70;99.20;;;;;;5053611;28;20502;-55
2021/06/23 10:07:57;;;;;;;1.30;1.20;;;26.60;98.90;;;;;;5054074;28;20492;-57
2021/06/23 10:10:43;;;;;;;3.63;1.30;;;26.40;99.00;;;;;;5065674;28;20894;-56
2021/06/23 10:13:09;;;;;;;1.80;1.20;;;26.70;98.90;;;;;;5074015;28;20243;-56
2021/06/23 10:15:36;;;;;;;1.23;1.10;;;26.80;98.40;;;;;;5073552;28;20431;-57
2021/06/23 10:18:03;;;;;;;1.53;1.07;;;26.80;98.30;;;;;;5071690;28;20420;-57
2021/06/23 10:20:28;;;;;;;1.10;1.00;;;27.20;98.40;;;;;;5073798;28;20450;-57
2021/06/23 10:22:55;;;;;;;1.10;1.00;;;27.00;98.00;;;;;;5074165;28;20396;-57
2021/06/23 10:25:23;;;;;;;1.30;1.00;;;27.30;98.00;;;;;;5072404;28;20663;-56
2021/06/23 10:27:51;;;;;;;1.07;0.90;;;27.40;97.20;;;;;;5073941;28;20451;-58
2021/06/23 10:30:18;;;;;;;1.43;1.27;;;27.60;97.20;;;;;;5074180;28;20408;-56
2021/06/23 10:32:44;;;;;;;1.30;0.80;;;27.40;95.00;;;;;;5073990;28;20444;-58
2021/06/23 10:35:11;;;;;;;1.43;1.00;;;27.10;95.60;;;;;;5073021;28;20516;-57
2021/06/23 10:37:39;;;;;;;1.40;0.90;;;27.00;95.50;;;;;;5064494;28;20166;-58
2021/06/23 10:40:07;;;;;;;1.43;1.00;;;27.00;94.90;;;;;;5072905;28;20927;-58
2021/06/23 10:42:33;;;;;;;1.60;1.50;;;26.10;96.00;;;;;;5074109;28;20404;-58
2021/06/23 10:44:58;;;;;;;1.17;1.00;;;26.40;96.10;;;;;;5073779;28;20444;-58
2021/06/23 10:47:39;;;;;;;1.10;0.70;;;26.90;95.70;;;;;;5073738;28;20459;-58
2021/06/23 10:50:06;;;;;;;0.80;0.70;;;27.60;96.00;;;;;;5055795;28;20169;-56
2021/06/23 10:52:34;;;;;;;1.70;0.90;;;27.50;94.20;;;;;;5071974;28;20505;-56
2021/06/23 10:55:08;;;;;;;1.20;0.70;;;27.40;93.70;;;;;;5073158;28;20954;-55
2021/06/23 10:57:45;;;;;;;1.37;0.80;;;27.30;94.50;;;;;;5073307;28;20399;-57
2021/06/23 11:00:11;;;;;;;0.93;0.80;;;27.20;93.30;;;;;;5072585;28;20543;-58
2021/06/23 11:02:42;;;;;;;1.10;0.90;;;27.30;92.80;;;;;;5073661;28;20400;-56
2021/06/23 11:05:17;;;;;;;2.93;1.07;;;27.30;93.60;;;;;;5073161;28;20416;-57
2021/06/23 11:07:46;;;;;;;1.10;1.00;;;27.30;93.20;;;;;;5073754;28;20392;-56
2021/06/23 11:10:15;;;;;;;1.00;0.60;;;27.60;92.90;;;;;;5073367;28;20423;-57
2021/06/23 11:12:47;;;;;;;1.20;0.80;;;27.90;92.90;;;;;;5073546;28;20455;-56
2021/06/23 11:15:15;;;;;;;1.10;1.00;;;28.40;93.50;;;;;;5072810;28;20416;-58
2021/06/23 11:17:51;;;;;;;1.00;0.90;;;28.20;92.20;;;;;;5073966;28;20487;-57
2021/06/23 11:20:20;;;;;;;0.80;0.70;;;27.50;94.30;;;;;;5090288;28;20777;-57
2021/06/23 11:22:54;;;;;;;2.47;1.00;;;27.70;94.50;;;;;;5093651;28;20486;-57
2021/06/23 11:25:26;;;;;;;1.00;0.80;;;27.20;95.70;;;;;;5092903;28;20431;-56
2021/06/23 11:28:12;;;;;;;1.47;0.80;;;27.50;95.00;;;;;;5090736;28;20887;-57
2021/06/23 11:31:04;;;;;;;2.43;0.83;;;27.60;94.00;;;;;;5073616;28;20423;-57
2021/06/23 11:33:30;;;;;;;2.50;0.97;;;28.10;93.40;;;;;;5073160;28;20439;-58
2021/06/23 11:35:59;;;;;;;1.40;0.80;;;28.80;93.80;;;;;;5071581;28;20948;-55
2021/06/23 11:38:25;;;;;;;2.20;0.70;;;29.50;92.70;;;;;;5072745;28;20241;-56
2021/06/23 11:40:52;;;;;;;1.60;0.80;;;30.80;90.20;;;;;;5055250;28;20419;-58
2021/06/23 11:43:18;;;;;;;0.97;0.87;;;32.50;85.50;;;;;;5073414;28;20407;-57
2021/06/23 11:45:45;;;;;;;1.40;0.60;;;34.00;82.50;;;;;;5072833;28;20427;-57
2021/06/23 11:48:11;;;;;;;1.30;0.70;;;33.80;77.30;;;;;;5071660;28;20174;-56
2021/06/23 11:50:40;;;;;;;1.00;0.70;;;34.20;72.80;;;;;;5055208;28;20412;-57
2021/06/23 11:53:09;;;;;;;1.07;0.70;;;34.50;73.70;;;;;;5072890;28;20436;-57
2021/06/23 11:55:35;;;;;;;1.03;0.67;;;34.70;70.30;;;;;;5072683;28;20424;-58
2021/06/23 11:58:01;;;;;;;0.77;0.70;;;33.70;72.10;;;;;;5071543;28;20470;-56
2021/06/23 12:00:31;;;;;;;1.33;0.70;;;34.30;69.30;;;;;;5073077;28;20249;-57
2021/06/23 12:02:58;;;;;;;0.80;0.70;;;35.80;66.90;;;;;;5072988;28;20415;-53
2021/06/23 12:05:27;;;;;;;0.90;0.73;;;35.50;66.80;;;;;;5051861;28;20477;-56
2021/06/23 12:07:53;;;;;;;1.50;0.90;;;35.10;66.90;;;;;;5052440;28;20409;-57
2021/06/23 12:10:23;;;;;;;1.20;0.83;;;32.10;70.90;;;;;;5052651;28;20413;-56
2021/06/23 12:12:49;;;;;;;1.10;0.80;;;31.30;74.50;;;;;;5052675;28;20441;-55
2021/06/23 12:15:20;;;;;;;0.87;0.87;;;32.50;73.60;;;;;;5052807;28;20425;-56
2021/06/23 12:17:46;;;;;;;1.27;0.87;;;32.00;72.40;;;;;;5053250;28;20491;-58
2021/06/23 12:20:13;;;;;;;0.80;0.80;;;31.20;76.50;;;;;;5052646;28;20412;-57
2021/06/23 12:22:39;;;;;;;1.00;0.80;;;30.60;77.50;;;;;;5052971;28;20413;-57
2021/06/23 12:25:09;;;;;;;1.60;1.00;;;32.00;73.60;;;;;;5052738;28;20463;-58
2021/06/23 12:27:35;;;;;;;1.03;0.80;;;33.40;70.70;;;;;;5052988;28;20197;-57
2021/06/23 12:30:01;;;;;;;6.40;0.97;;;34.20;65.80;;;;;;5034135;28;20417;-58
2021/06/23 12:32:26;;;;;;;1.67;0.87;;;33.90;68.90;;;;;;5052512;28;20506;-58
2021/06/23 12:34:52;;;;;;;1.50;1.00;;;33.80;67.00;;;;;;5052449;28;20191;-58
2021/06/23 12:37:18;;;;;;;1.20;0.63;;;35.00;63.90;;;;;;5053855;28;20182;-59
2021/06/23 12:39:44;;;;;;;1.33;0.73;;;35.70;62.30;;;;;;5056321;28;20237;-58
2021/06/23 12:42:10;;;;;;;1.30;0.60;;;36.60;59.80;;;;;;5056032;28;20901;-58
2021/06/23 12:44:36;;;;;;;2.80;0.90;;;34.60;59.90;;;;;;5055823;28;20191;-59
2021/06/23 12:47:03;;;;;;;0.90;0.70;;;36.40;59.60;;;;;;5055664;28;20186;-59
2021/06/23 12:49:31;;;;;;;1.03;0.60;;;37.40;54.40;;;;;;5055586;28;20783;-57
2021/06/23 12:51:58;;;;;;;1.10;0.60;;;36.00;55.10;;;;;;5056046;28;20405;-58
2021/06/23 12:54:24;;;;;;;1.00;0.63;;;36.90;53.00;;;;;;5055800;28;20463;-56
2021/06/23 12:56:49;;;;;;;1.50;1.20;;;36.80;52.60;;;;;;5055857;28;20432;-58
2021/06/23 12:59:15;;;;;;;1.03;0.53;;;36.20;52.80;;;;;;5055319;28;20531;-57
2021/06/23 13:01:40;;;;;;;0.90;0.70;;;35.10;53.10;;;;;;5055998;28;20178;-58
2021/06/23 13:04:06;;;;;;;0.80;0.60;;;34.10;56.30;;;;;;5055507;28;20614;-57
2021/06/23 13:06:32;;;;;;;0.80;0.60;;;31.90;59.40;;;;;;5055929;28;20194;-58
2021/06/23 13:08:57;;;;;;;0.90;0.57;;;31.50;61.40;;;;;;5055483;28;20171;-56